Time;durP1;ratioP1;P1;durP2;ratioP2;P2;SDS_P1;SDS_P2;PMS_P1;PMS_P2;Temp;Humidity;BMP_temperature;BMP_pressure;BME280_temperature;BME280_humidity;BME280_pressure;Samples;Min_cycle;Max_cycle;Signal;HPM_P1;HPM_P2
2023/12/16 00:02:13;;;;;;;1.38;1.05;;;;;;;2.73;72.28;95837.09;5086370;28;20054;-77
2023/12/16 00:04:40;;;;;;;1.85;1.15;;;;;;;2.71;71.79;95834.75;5086364;28;20567;-77
2023/12/16 00:07:06;;;;;;;2.90;1.40;;;;;;;2.66;71.92;95837.78;5086695;28;20146;-77
2023/12/16 00:09:31;;;;;;;2.05;1.10;;;;;;;2.71;72.02;95826.63;5086561;28;20024;-77
2023/12/16 00:11:57;;;;;;;1.83;1.13;;;;;;;2.70;72.11;95838.63;5086557;28;20036;-77
2023/12/16 00:14:22;;;;;;;2.60;1.23;;;;;;;2.64;71.79;95848.22;5086171;28;20047;-77
2023/12/16 00:16:48;;;;;;;1.65;1.15;;;;;;;2.56;72.14;95851.97;5086096;28;20059;-78
2023/12/16 00:19:14;;;;;;;2.03;1.00;;;;;;;2.55;72.18;95853.09;5086345;28;20153;-77
2023/12/16 00:21:40;;;;;;;1.63;1.30;;;;;;;2.51;72.89;95857.69;5086218;28;20486;-77
2023/12/16 00:24:08;;;;;;;3.10;1.92;;;;;;;2.46;73.03;95864.19;5086165;28;20031;-77
2023/12/16 00:26:33;;;;;;;2.67;1.85;;;;;;;2.42;73.43;95865.31;5085791;28;20032;-77
2023/12/16 00:28:59;;;;;;;3.30;2.95;;;;;;;2.44;73.50;95871.94;5084867;28;20031;-77
2023/12/16 00:31:24;;;;;;;4.25;3.72;;;;;;;2.46;73.22;95872.34;5085700;28;20054;-76
2023/12/16 00:33:49;;;;;;;5.20;3.78;;;;;;;2.40;73.48;95866.44;5085733;28;20225;-76
2023/12/16 00:36:15;;;;;;;6.57;5.15;;;;;;;2.42;73.26;95879.66;5085733;28;20028;-77
2023/12/16 00:38:40;;;;;;;4.75;4.28;;;;;;;2.40;73.62;95880.00;5085732;28;20371;-76
2023/12/16 00:41:05;;;;;;;5.32;4.82;;;;;;;2.29;73.67;95881.72;5085814;28;20028;-78
2023/12/16 00:43:31;;;;;;;6.07;4.97;;;;;;;2.23;73.84;95883.16;5085995;28;20088;-77
2023/12/16 00:45:57;;;;;;;6.18;5.15;;;;;;;2.18;74.13;95886.22;5085994;28;20024;-77
2023/12/16 00:48:22;;;;;;;5.32;4.50;;;;;;;2.20;74.14;95893.97;5085820;28;20111;-78
2023/12/16 00:50:47;;;;;;;5.00;4.50;;;;;;;2.17;74.37;95892.75;5086174;28;20028;-77
2023/12/16 00:53:13;;;;;;;3.85;3.25;;;;;;;2.12;74.24;95890.31;5085885;28;20032;-77
2023/12/16 00:55:41;;;;;;;3.00;2.35;;;;;;;2.06;74.45;95897.19;5085752;28;20028;-77
2023/12/16 00:58:08;;;;;;;4.00;3.20;;;;;;;2.02;74.73;95890.94;5084453;28;20516;-76
2023/12/16 01:00:33;;;;;;;3.88;3.13;;;;;;;2.00;74.72;95893.19;5086300;28;20028;-77
2023/12/16 01:02:59;;;;;;;4.35;2.50;;;;;;;2.00;74.84;95901.34;5085592;28;20119;-76
2023/12/16 01:05:24;;;;;;;3.15;2.40;;;;;;;1.88;75.12;95904.19;5085742;28;20431;-76
2023/12/16 01:07:50;;;;;;;2.85;2.22;;;;;;;1.91;75.25;95904.28;5085880;28;20520;-76
2023/12/16 01:10:15;;;;;;;3.33;2.10;;;;;;;1.88;75.66;95910.41;5085439;28;20078;-77
2023/12/16 01:12:41;;;;;;;3.42;1.70;;;;;;;1.96;75.21;95904.00;5085405;28;20044;-78
2023/12/16 01:15:07;;;;;;;2.42;1.98;;;;;;;1.96;74.87;95912.13;5085501;28;20044;-78
2023/12/16 01:17:33;;;;;;;3.60;1.75;;;;;;;1.92;75.01;95910.50;5085800;28;20093;-78
2023/12/16 01:19:58;;;;;;;2.28;1.75;;;;;;;1.92;75.17;95907.78;5085272;28;20119;-80
2023/12/16 01:22:24;;;;;;;1.95;1.50;;;;;;;1.96;75.00;95906.72;5085665;28;20064;-78
2023/12/16 01:24:49;;;;;;;2.08;1.42;;;;;;;1.98;74.56;95909.06;5085519;28;20478;-79
2023/12/16 01:27:14;;;;;;;2.92;1.60;;;;;;;1.95;74.87;95913.28;5085326;28;20031;-79
2023/12/16 01:29:40;;;;;;;2.05;1.52;;;;;;;1.88;74.96;95915.81;5085627;28;20024;-79
2023/12/16 01:32:06;;;;;;;2.08;1.50;;;;;;;1.82;74.96;95912.63;5085294;28;20108;-78
2023/12/16 01:34:31;;;;;;;2.25;1.17;;;;;;;1.83;75.40;95907.97;5084142;28;20031;-78
2023/12/16 01:36:56;;;;;;;2.10;1.52;;;;;;;1.86;75.34;95913.47;5085257;28;20086;-78
2023/12/16 01:39:22;;;;;;;1.80;1.30;;;;;;;1.80;75.32;95917.63;5085711;28;20410;-78
2023/12/16 01:41:47;;;;;;;2.55;1.42;;;;;;;1.83;75.29;95918.81;5084879;28;20020;-78
2023/12/16 01:44:13;;;;;;;1.40;1.25;;;;;;;1.86;75.09;95929.75;5086241;28;20024;-79
2023/12/16 01:46:38;;;;;;;2.28;1.20;;;;;;;1.78;75.22;95928.03;5089196;28;20446;-78
2023/12/16 01:49:04;;;;;;;1.67;1.20;;;;;;;1.77;75.27;95920.25;5087601;28;20042;-79
2023/12/16 01:51:31;;;;;;;3.83;1.67;;;;;;;1.89;75.19;95917.38;5088994;28;20085;-79
2023/12/16 01:53:57;;;;;;;2.60;1.52;;;;;;;1.85;75.04;95928.19;5087572;28;20051;-79
2023/12/16 01:56:22;;;;;;;1.70;1.00;;;;;;;1.82;74.58;95931.59;5089175;28;20489;-79
2023/12/16 01:58:49;;;;;;;2.80;1.30;;;;;;;1.77;74.99;95934.59;5087617;28;20539;-79
2023/12/16 02:01:14;;;;;;;2.00;1.33;;;;;;;1.76;75.31;95938.44;5089378;28;20201;-79
2023/12/16 02:03:41;;;;;;;1.67;1.17;;;;;;;1.79;75.18;95937.75;5087719;28;20039;-79
2023/12/16 02:06:07;;;;;;;2.78;1.20;;;;;;;1.82;75.34;95934.31;5089435;28;20023;-79
2023/12/16 02:08:32;;;;;;;2.00;1.40;;;;;;;1.84;75.32;95942.88;5089009;28;20020;-79
2023/12/16 02:10:58;;;;;;;1.48;1.10;;;;;;;1.89;75.29;95936.38;5088888;28;20050;-78
2023/12/16 02:13:24;;;;;;;1.90;1.30;;;;;;;1.98;74.76;95942.38;5087383;28;20086;-77
2023/12/16 02:15:49;;;;;;;2.63;1.50;;;;;;;1.97;74.36;95934.59;5088910;28;20581;-77
2023/12/16 02:18:15;;;;;;;1.70;1.40;;;;;;;1.90;74.63;95950.75;5089423;28;20577;-78
2023/12/16 02:20:40;;;;;;;4.72;1.40;;;;;;;1.88;74.72;95942.94;5087469;28;20459;-78
2023/12/16 02:23:17;;;;;;;2.10;1.30;;;;;;;1.85;74.91;95952.59;5086801;28;20024;-78
2023/12/16 02:25:43;;;;;;;1.98;1.50;;;;;;;1.85;74.96;95954.50;5087645;28;20107;-78
2023/12/16 02:28:09;;;;;;;1.75;1.30;;;;;;;1.85;74.88;95954.50;5088624;28;20430;-79
2023/12/16 02:30:34;;;;;;;3.13;1.67;;;;;;;1.76;75.10;95949.28;5088270;28;20493;-78
2023/12/16 02:33:00;;;;;;;1.90;1.45;;;;;;;1.81;74.98;95959.84;5088136;28;20050;-78
2023/12/16 02:35:25;;;;;;;2.25;1.45;;;;;;;1.90;74.88;95972.44;5088495;28;20028;-78
2023/12/16 02:37:51;;;;;;;2.03;1.65;;;;;;;1.90;74.79;95970.50;5088018;28;20024;-78
2023/12/16 02:40:16;;;;;;;2.10;1.45;;;;;;;1.91;74.42;95977.50;5088055;28;20111;-77
2023/12/16 02:42:42;;;;;;;1.33;1.10;;;;;;;2.01;74.53;95976.16;5088216;28;20082;-78
2023/12/16 02:45:07;;;;;;;2.45;1.50;;;;;;;2.04;74.29;95978.16;5087699;28;20032;-78
2023/12/16 02:47:33;;;;;;;1.83;1.30;;;;;;;2.00;74.32;95978.06;5087895;28;20027;-77
2023/12/16 02:49:58;;;;;;;1.77;1.35;;;;;;;2.01;74.15;95985.06;5088072;28;20024;-78
2023/12/16 02:52:24;;;;;;;2.65;1.70;;;;;;;2.03;73.69;95990.91;5087642;28;20058;-77
2023/12/16 02:54:49;;;;;;;2.30;1.60;;;;;;;2.08;73.83;95993.34;5087404;28;20020;-78
2023/12/16 02:57:15;;;;;;;3.00;1.80;;;;;;;2.11;73.87;96002.69;5086666;28;20028;-77
2023/12/16 02:59:40;;;;;;;1.95;1.50;;;;;;;2.09;73.89;95991.44;5087793;28;20021;-78
2023/12/16 03:02:05;;;;;;;2.00;1.45;;;;;;;2.17;73.83;95995.84;5087315;28;20617;-77
2023/12/16 03:04:31;;;;;;;2.55;1.77;;;;;;;2.18;73.65;95994.72;5087766;28;20028;-78
2023/12/16 03:06:56;;;;;;;3.13;2.03;;;;;;;2.22;73.54;95998.28;5069055;28;20028;-77
2023/12/16 03:09:22;;;;;;;4.15;2.08;;;;;;;2.25;73.33;96005.72;5087391;28;20035;-77
2023/12/16 03:11:49;;;;;;;3.22;2.25;;;;;;;2.26;73.39;96007.28;5087143;28;20547;-77
2023/12/16 03:14:16;;;;;;;4.25;2.40;;;;;;;2.32;73.40;96008.56;5087216;28;20055;-76
2023/12/16 03:16:41;;;;;;;2.95;1.88;;;;;;;2.34;73.27;96008.97;5085955;28;20474;-77
2023/12/16 03:19:06;;;;;;;2.92;1.98;;;;;;;2.37;72.77;96000.13;5087294;28;20059;-77
2023/12/16 03:21:32;;;;;;;2.72;1.90;;;;;;;2.38;72.36;96009.84;5087602;28;20519;-77
2023/12/16 03:23:57;;;;;;;3.10;1.80;;;;;;;2.40;72.13;96007.56;5086980;28;20036;-76
2023/12/16 03:26:23;;;;;;;2.13;1.70;;;;;;;2.42;71.90;96003.72;5087468;28;20028;-77
2023/12/16 03:28:48;;;;;;;2.75;1.30;;;;;;;2.44;70.66;96010.34;5087219;28;20097;-76
2023/12/16 03:31:14;;;;;;;3.17;1.40;;;;;;;2.39;70.28;96010.63;5087173;28;20166;-77
2023/12/16 03:33:39;;;;;;;1.30;1.00;;;;;;;2.45;70.39;96008.41;5087185;28;20486;-78
2023/12/16 03:36:07;;;;;;;1.60;0.90;;;;;;;2.54;68.94;96022.56;5087081;28;20031;-77
2023/12/16 03:38:33;;;;;;;1.92;0.90;;;;;;;2.49;68.04;96017.41;5085886;28;20031;-78
2023/12/16 03:40:58;;;;;;;1.55;0.80;;;;;;;2.39;68.30;96011.41;5087353;28;20028;-77
2023/12/16 03:43:24;;;;;;;0.77;0.70;;;;;;;2.42;68.49;96031.63;5087211;28;20387;-77
2023/12/16 03:45:49;;;;;;;1.23;0.70;;;;;;;2.47;68.04;96033.28;5086967;28;20028;-77
2023/12/16 03:48:15;;;;;;;0.90;0.70;;;;;;;2.52;67.33;96030.25;5086734;28;20454;-77
2023/12/16 03:50:40;;;;;;;1.23;0.60;;;;;;;2.49;66.33;96039.13;5086973;28;20024;-77
2023/12/16 03:53:05;;;;;;;0.70;0.45;;;;;;;2.47;66.26;96036.00;5087066;28;20035;-77
2023/12/16 03:55:31;;;;;;;0.70;0.50;;;;;;;2.48;66.07;96035.63;5086664;28;20410;-76
2023/12/16 03:57:56;;;;;;;0.80;0.50;;;;;;;2.48;65.94;96040.28;5086693;28;20224;-79
2023/12/16 04:00:21;;;;;;;3.00;0.60;;;;;;;2.50;66.02;96048.84;5086857;28;20125;-77
2023/12/16 04:02:47;;;;;;;0.55;0.40;;;;;;;2.44;66.05;96050.28;5086663;28;20123;-77
2023/12/16 04:05:13;;;;;;;2.67;0.70;;;;;;;2.48;65.90;96057.34;5086887;28;20054;-77
2023/12/16 04:07:38;;;;;;;0.82;0.50;;;;;;;2.47;66.01;96058.50;5086652;28;20043;-77
2023/12/16 04:10:04;;;;;;;0.75;0.40;;;;;;;2.49;65.22;96060.84;5086148;28;20505;-78
2023/12/16 04:12:30;;;;;;;0.73;0.50;;;;;;;2.50;65.23;96065.91;5086324;28;20479;-77
2023/12/16 04:14:55;;;;;;;0.88;0.60;;;;;;;2.50;65.09;96070.56;5086202;28;20109;-77
2023/12/16 04:17:20;;;;;;;1.02;0.38;;;;;;;2.55;64.91;96073.78;5086780;28;20028;-77
2023/12/16 04:19:52;;;;;;;0.73;0.45;;;;;;;2.54;64.71;96072.22;5084960;28;20020;-77
2023/12/16 04:22:18;;;;;;;0.75;0.30;;;;;;;2.55;64.45;96073.00;5068355;28;20035;-77
2023/12/16 04:24:44;;;;;;;0.50;0.30;;;;;;;2.49;63.94;96072.50;5086554;28;20028;-78
2023/12/16 04:27:10;;;;;;;0.38;0.28;;;;;;;2.49;63.98;96069.78;5085576;28;20039;-78
2023/12/16 04:29:35;;;;;;;0.45;0.25;;;;;;;2.43;64.45;96071.19;5086537;28;20432;-79
2023/12/16 04:32:00;;;;;;;0.73;0.30;;;;;;;2.50;64.02;96067.84;5085888;28;20102;-78
2023/12/16 04:34:26;;;;;;;0.90;0.60;;;;;;;2.47;63.92;96077.50;5086158;28;20027;-78
2023/12/16 04:36:51;;;;;;;0.82;0.40;;;;;;;2.47;63.88;96077.50;5085948;28;20097;-78
2023/12/16 04:39:16;;;;;;;0.70;0.20;;;;;;;2.50;63.61;96068.63;5086264;28;20423;-79
2023/12/16 04:41:42;;;;;;;0.90;0.50;;;;;;;2.48;63.42;96079.06;5086144;28;20081;-78
2023/12/16 04:44:07;;;;;;;0.52;0.35;;;;;;;2.39;63.90;96081.19;5084645;28;20077;-78
2023/12/16 04:46:32;;;;;;;1.08;0.30;;;;;;;2.39;63.89;96070.34;5086575;28;20038;-78
2023/12/16 04:48:58;;;;;;;1.10;0.40;;;;;;;2.41;63.37;96078.94;5085819;28;20036;-78
2023/12/16 04:51:23;;;;;;;0.63;0.38;;;;;;;2.20;63.24;96071.09;5086057;28;20111;-77
2023/12/16 04:53:49;;;;;;;0.52;0.40;;;;;;;2.31;63.57;96093.84;5085825;28;20105;-77
2023/12/16 04:56:14;;;;;;;0.85;0.30;;;;;;;2.36;63.57;96098.97;5085915;28;20024;-77
2023/12/16 04:58:39;;;;;;;0.93;0.38;;;;;;;2.33;63.15;96105.09;5086115;28;20056;-78
2023/12/16 05:01:05;;;;;;;0.60;0.38;;;;;;;2.31;63.66;96099.25;5085955;28;20035;-77
2023/12/16 05:03:31;;;;;;;0.95;0.40;;;;;;;2.30;63.52;96096.91;5084261;28;20016;-77
2023/12/16 05:05:57;;;;;;;0.73;0.30;;;;;;;2.27;63.43;96092.97;5084094;28;20024;-77
2023/12/16 05:08:22;;;;;;;1.05;0.60;;;;;;;2.29;63.99;96098.81;5085901;28;20058;-77
2023/12/16 05:10:48;;;;;;;0.88;0.60;;;;;;;2.28;64.18;96099.16;5085698;28;20348;-77
2023/12/16 05:13:15;;;;;;;1.00;0.47;;;;;;;2.30;63.86;96105.84;5085343;28;20528;-78
2023/12/16 05:15:40;;;;;;;0.60;0.50;;;;;;;2.26;63.69;96123.97;5084509;28;20032;-78
2023/12/16 05:18:06;;;;;;;0.30;0.30;;;;;;;2.28;63.95;96116.25;5085497;28;20085;-78
2023/12/16 05:20:32;;;;;;;2.08;0.70;;;;;;;2.32;63.10;96130.69;5088489;28;20031;-78
2023/12/16 05:22:59;;;;;;;0.90;0.50;;;;;;;2.32;63.37;96119.03;5089558;28;20069;-78
2023/12/16 05:25:25;;;;;;;2.38;0.70;;;;;;;2.31;63.51;96133.75;5089666;28;20031;-78
2023/12/16 05:27:51;;;;;;;1.88;0.70;;;;;;;2.28;63.74;96137.94;5089103;28;20157;-78
2023/12/16 05:30:16;;;;;;;1.65;1.10;;;;;;;2.23;64.08;96137.44;5089392;28;20106;-77
2023/12/16 05:32:42;;;;;;;1.52;0.85;;;;;;;2.31;64.54;96147.31;5089773;28;20394;-77
2023/12/16 05:35:07;;;;;;;1.45;0.80;;;;;;;2.30;64.67;96143.81;5088058;28;20047;-78
2023/12/16 05:37:32;;;;;;;2.08;1.02;;;;;;;2.34;64.46;96154.75;5089405;28;20039;-78
2023/12/16 05:39:58;;;;;;;0.90;0.60;;;;;;;2.34;64.18;96157.47;5087671;28;20031;-77
2023/12/16 05:42:23;;;;;;;0.90;0.68;;;;;;;2.32;64.25;96157.81;5089295;28;20055;-79
2023/12/16 05:44:49;;;;;;;1.80;0.80;;;;;;;2.37;64.54;96164.91;5087704;28;20028;-77
2023/12/16 05:47:14;;;;;;;0.55;0.50;;;;;;;2.33;65.06;96162.09;5088984;28;20066;-77
2023/12/16 05:49:39;;;;;;;1.25;0.60;;;;;;;2.35;64.90;96153.59;5089019;28;20102;-78
2023/12/16 05:52:05;;;;;;;0.88;0.60;;;;;;;2.40;64.57;96156.03;5089008;28;20479;-78
2023/12/16 05:54:30;;;;;;;1.27;0.90;;;;;;;2.42;63.92;96144.84;5088996;28;20043;-78
2023/12/16 05:56:56;;;;;;;1.52;0.90;;;;;;;2.35;64.02;96150.88;5088713;28;20031;-78
2023/12/16 05:59:21;;;;;;;2.10;0.82;;;;;;;2.36;64.03;96166.84;5089038;28;20024;-77
2023/12/16 06:01:46;;;;;;;1.67;0.80;;;;;;;2.33;64.20;96148.53;5088581;28;20032;-77
2023/12/16 06:04:13;;;;;;;2.67;0.98;;;;;;;2.49;63.75;96151.22;5088958;28;20056;-77
2023/12/16 06:06:39;;;;;;;1.92;0.95;;;;;;;2.44;63.59;96147.97;5088297;28;20034;-77
2023/12/16 06:09:04;;;;;;;1.33;1.00;;;;;;;2.57;63.12;96154.84;5088630;28;20023;-78
2023/12/16 06:11:29;;;;;;;2.05;1.20;;;;;;;2.52;62.92;96172.19;5088780;28;20036;-78
2023/12/16 06:13:55;;;;;;;2.80;1.20;;;;;;;2.52;63.03;96179.56;5088320;28;20546;-77
2023/12/16 06:16:20;;;;;;;3.03;1.35;;;;;;;2.54;63.15;96180.78;5088367;28;20058;-77
2023/12/16 06:18:47;;;;;;;2.25;1.30;;;;;;;2.53;63.07;96183.88;5088600;28;20334;-80
2023/12/16 06:21:13;;;;;;;2.33;1.30;;;;;;;2.49;63.66;96197.34;5088287;28;20024;-78
2023/12/16 06:23:38;;;;;;;2.40;1.20;;;;;;;2.46;64.14;96202.69;5086760;28;20036;-78
2023/12/16 06:26:03;;;;;;;2.10;1.25;;;;;;;2.45;64.46;96201.13;5088342;28;20035;-78
2023/12/16 06:28:29;;;;;;;2.08;1.20;;;;;;;2.50;64.27;96207.06;5086814;28;20020;-78
2023/12/16 06:30:54;;;;;;;2.60;1.40;;;;;;;2.51;64.36;96205.13;5087894;28;20506;-78
2023/12/16 06:33:22;;;;;;;2.25;1.23;;;;;;;2.49;64.25;96208.22;5088283;28;20497;-78
2023/12/16 06:35:48;;;;;;;2.00;1.45;;;;;;;2.49;64.23;96213.63;5087178;28;20031;-77
2023/12/16 06:38:13;;;;;;;2.42;1.50;;;;;;;2.53;64.31;96219.94;5088028;28;20050;-78
2023/12/16 06:40:38;;;;;;;5.30;1.70;;;;;;;2.55;63.81;96230.44;5087973;28;20111;-78
2023/12/16 06:43:04;;;;;;;2.38;1.50;;;;;;;2.52;63.63;96229.22;5087927;28;20110;-78
2023/12/16 06:45:31;;;;;;;3.47;2.08;;;;;;;2.49;63.82;96234.56;5087559;28;20034;-79
2023/12/16 06:47:57;;;;;;;7.57;3.85;;;;;;;2.46;64.46;96232.56;5087724;28;20032;-79
2023/12/16 06:50:23;;;;;;;3.15;2.20;;;;;;;2.35;65.36;96243.16;5087921;28;20035;-79
2023/12/16 06:52:48;;;;;;;2.83;2.05;;;;;;;2.29;65.74;96250.78;5088210;28;20043;-79
2023/12/16 06:55:13;;;;;;;1.90;1.33;;;;;;;2.32;66.00;96257.44;5088066;28;20517;-78
2023/12/16 06:57:39;;;;;;;2.40;1.35;;;;;;;2.32;66.10;96266.38;5088112;28;20059;-79
2023/12/16 07:00:06;;;;;;;1.65;1.02;;;;;;;2.18;66.92;96259.78;5087552;28;20028;-79
2023/12/16 07:02:31;;;;;;;1.75;1.10;;;;;;;2.13;67.79;96264.38;5087462;28;20052;-77
2023/12/16 07:04:57;;;;;;;3.13;1.10;;;;;;;2.17;67.67;96272.56;5087903;28;20021;-78
2023/12/16 07:07:23;;;;;;;1.35;0.98;;;;;;;2.12;68.21;96278.25;5087349;28;20102;-78
2023/12/16 07:09:49;;;;;;;1.33;0.88;;;;;;;2.12;68.52;96294.53;5087623;28;20020;-78
2023/12/16 07:12:14;;;;;;;2.38;1.30;;;;;;;1.98;69.05;96283.34;5087637;28;20072;-77
2023/12/16 07:14:39;;;;;;;2.65;0.90;;;;;;;1.83;69.89;96298.44;5087369;28;20036;-78
2023/12/16 07:17:05;;;;;;;1.33;0.90;;;;;;;1.71;70.46;96301.22;5087184;28;20510;-77
2023/12/16 07:19:31;;;;;;;2.20;0.88;;;;;;;1.69;70.63;96304.28;5087278;28;20024;-79
2023/12/16 07:21:57;;;;;;;1.63;0.82;;;;;;;1.65;71.13;96308.81;5087347;28;20035;-78
2023/12/16 07:24:23;;;;;;;1.80;0.95;;;;;;;1.74;71.01;96311.38;5087030;28;20499;-80
2023/12/16 07:26:49;;;;;;;2.80;1.08;;;;;;;1.73;71.01;96298.97;5087458;28;20197;-77
2023/12/16 07:29:14;;;;;;;2.25;1.10;;;;;;;1.65;71.55;96313.44;5085764;28;20477;-77
2023/12/16 07:31:40;;;;;;;2.15;1.65;;;;;;;1.64;72.09;96314.59;5087367;28;20028;-77
2023/12/16 07:34:06;;;;;;;2.95;1.15;;;;;;;1.70;71.94;96308.56;5086819;28;20055;-82
2023/12/16 07:36:31;;;;;;;3.05;1.40;;;;;;;1.75;72.02;96310.25;5086922;28;20064;-77
2023/12/16 07:38:57;;;;;;;2.22;1.48;;;;;;;1.79;71.92;96314.63;5087091;28;20375;-77
2023/12/16 07:41:23;;;;;;;1.80;1.02;;;;;;;1.77;71.80;96324.22;5086090;28;20517;-77
2023/12/16 07:43:49;;;;;;;2.30;1.48;;;;;;;1.69;72.06;96317.84;5086664;28;20028;-78
2023/12/16 07:46:15;;;;;;;2.80;1.48;;;;;;;1.71;72.28;96322.91;5086479;28;20031;-77
2023/12/16 07:48:42;;;;;;;3.55;1.90;;;;;;;1.78;72.31;96328.53;5086846;28;20031;-76
2023/12/16 07:51:16;;;;;;;1.73;0.98;;;;;;;1.81;71.52;96320.47;5086448;28;20024;-77
2023/12/16 07:53:47;;;;;;;4.22;1.42;;;;;;;1.80;71.95;96321.63;5086596;28;20044;-76
2023/12/16 07:56:26;;;;;;;2.60;1.05;;;;;;;1.61;72.56;96326.91;5086347;28;20070;-77
2023/12/16 07:58:52;;;;;;;1.77;1.30;;;;;;;1.76;72.61;96331.56;5086582;28;20067;-76
2023/12/16 08:01:18;;;;;;;3.35;1.75;;;;;;;1.75;72.58;96335.44;5085037;28;20078;-78
2023/12/16 08:03:44;;;;;;;2.63;1.58;;;;;;;1.76;72.77;96331.56;5086409;28;20530;-81
2023/12/16 08:06:10;;;;;;;2.20;1.48;;;;;;;1.73;72.91;96339.63;5067716;28;20056;-77
2023/12/16 08:08:39;;;;;;;2.38;1.30;;;;;;;1.71;72.97;96345.38;5086613;28;20059;-79
2023/12/16 08:11:05;;;;;;;2.05;1.58;;;;;;;1.60;73.21;96349.72;5085671;28;20490;-75
2023/12/16 08:13:31;;;;;;;2.55;1.30;;;;;;;1.59;73.09;96346.22;5089754;28;20782;-77
2023/12/16 08:15:56;;;;;;;3.78;1.70;;;;;;;1.52;73.48;96356.88;5086155;28;20039;-78
2023/12/16 08:18:22;;;;;;;5.68;4.50;;;;;;;1.52;73.53;96358.78;5086175;28;20028;-77
2023/12/16 08:20:47;;;;;;;4.80;2.92;;;;;;;1.50;73.68;96358.34;5086201;28;20024;-76
2023/12/16 08:23:13;;;;;;;2.17;1.58;;;;;;;1.41;73.63;96363.91;5086282;28;20028;-77
2023/12/16 08:25:39;;;;;;;3.25;2.53;;;;;;;1.31;74.14;96369.78;5086013;28;20032;-79
2023/12/16 08:28:04;;;;;;;2.50;1.95;;;;;;;1.30;73.96;96374.41;5085747;28;20137;-79
2023/12/16 08:30:30;;;;;;;3.40;1.80;;;;;;;1.35;74.39;96376.09;5084888;28;20141;-77
2023/12/16 08:32:55;;;;;;;4.03;1.70;;;;;;;1.41;74.27;96382.06;5086133;28;20016;-77
2023/12/16 08:35:20;;;;;;;2.97;1.55;;;;;;;1.39;73.75;96382.44;5085776;28;20028;-77
2023/12/16 08:37:46;;;;;;;4.22;2.00;;;;;;;1.39;74.06;96373.50;5086446;28;20109;-79
2023/12/16 08:40:12;;;;;;;4.90;2.05;;;;;;;1.47;74.12;96373.38;5085892;28;20402;-77
2023/12/16 08:42:41;;;;;;;2.90;2.15;;;;;;;1.44;74.08;96382.19;5084579;28;20046;-79
2023/12/16 08:45:07;;;;;;;4.05;2.38;;;;;;;1.49;73.90;96375.72;5085681;28;20024;-78
2023/12/16 08:47:32;;;;;;;4.45;2.80;;;;;;;1.53;74.03;96366.56;5084600;28;20505;-77
2023/12/16 08:49:57;;;;;;;3.97;2.50;;;;;;;1.55;73.95;96366.25;5085742;28;20032;-78
2023/12/16 08:52:23;;;;;;;6.53;2.35;;;;;;;1.54;74.06;96367.34;5085595;28;20509;-76
2023/12/16 08:54:48;;;;;;;4.03;2.35;;;;;;;1.56;73.78;96348.84;5083838;28;20032;-77
2023/12/16 08:57:14;;;;;;;4.95;2.35;;;;;;;1.71;73.69;96361.66;5085691;28;20418;-77
2023/12/16 08:59:39;;;;;;;5.68;2.72;;;;;;;1.74;73.06;96354.75;5085607;28;20035;-81
2023/12/16 09:02:05;;;;;;;4.30;2.75;;;;;;;1.78;73.46;96372.72;5083958;28;20020;-77
2023/12/16 09:04:31;;;;;;;3.67;2.67;;;;;;;1.74;72.88;96369.09;5085645;28;20032;-76
2023/12/16 09:06:56;;;;;;;5.25;2.78;;;;;;;1.63;73.04;96376.16;5085473;28;20120;-75
2023/12/16 09:09:22;;;;;;;4.15;2.00;;;;;;;1.64;72.98;96364.16;5083963;28;20032;-78
2023/12/16 09:11:48;;;;;;;4.60;2.33;;;;;;;1.59;73.26;96357.06;5083998;28;20440;-81
2023/12/16 09:14:13;;;;;;;4.90;2.65;;;;;;;1.63;73.55;96350.97;5085362;28;20422;-80
2023/12/16 09:16:39;;;;;;;6.97;2.60;;;;;;;1.73;73.30;96351.25;5085510;28;20028;-79
2023/12/16 09:19:07;;;;;;;4.55;2.50;;;;;;;1.78;72.93;96347.53;5085336;28;20229;-79
2023/12/16 09:21:32;;;;;;;4.07;2.22;;;;;;;1.79;73.07;96352.59;5085511;28;20028;-79
2023/12/16 09:23:58;;;;;;;4.00;2.38;;;;;;;1.76;72.64;96347.84;5085444;28;20038;-78
2023/12/16 09:26:24;;;;;;;6.50;2.78;;;;;;;1.84;72.80;96349.63;5085174;28;20027;-78
2023/12/16 09:28:49;;;;;;;5.40;2.67;;;;;;;1.85;72.32;96348.50;5085341;28;20024;-78
2023/12/16 09:31:16;;;;;;;8.93;3.70;;;;;;;1.96;72.59;96345.28;5085405;28;20032;-78
2023/12/16 09:33:41;;;;;;;5.75;2.65;;;;;;;2.08;72.63;96346.00;5084865;28;20430;-78
2023/12/16 09:36:13;;;;;;;4.80;2.60;;;;;;;2.14;72.07;96338.41;5085600;28;20035;-79
2023/12/16 09:38:42;;;;;;;4.03;2.92;;;;;;;2.23;72.01;96339.00;5085262;28;20656;-78
2023/12/16 09:41:24;;;;;;;3.35;2.20;;;;;;;2.31;71.46;96338.06;5084980;28;20024;-78
2023/12/16 09:43:58;;;;;;;4.22;2.40;;;;;;;2.39;71.08;96341.75;5084134;28;20093;-79
2023/12/16 09:46:28;;;;;;;5.43;2.83;;;;;;;2.37;70.64;96344.03;5083430;28;20067;-79
2023/12/16 09:48:54;;;;;;;3.40;2.22;;;;;;;2.50;70.47;96347.44;5085176;28;20039;-79
2023/12/16 09:51:21;;;;;;;4.07;2.25;;;;;;;2.53;69.95;96335.91;5084874;28;20028;-79
2023/12/16 09:53:50;;;;;;;3.78;2.00;;;;;;;2.58;69.47;96349.19;5085194;28;20032;-78
2023/12/16 09:56:16;;;;;;;2.83;1.77;;;;;;;2.52;68.96;96345.16;5083411;28;20681;-79
2023/12/16 09:58:43;;;;;;;2.38;1.67;;;;;;;2.36;68.85;96342.47;5083801;28;20115;-80
2023/12/16 10:01:09;;;;;;;3.20;1.80;;;;;;;2.33;69.29;96345.84;5083506;28;20108;-79
2023/12/16 10:03:36;;;;;;;2.22;1.58;;;;;;;2.28;69.46;96344.19;5083538;28;20032;-79
2023/12/16 10:06:02;;;;;;;3.97;1.98;;;;;;;2.34;69.65;96352.84;5085857;28;20126;-80
2023/12/16 10:08:28;;;;;;;3.90;2.35;;;;;;;2.42;69.30;96349.19;5069947;28;20110;-80
2023/12/16 10:11:00;;;;;;;3.47;2.17;;;;;;;2.42;69.71;96348.41;5089052;28;20024;-80
2023/12/16 10:13:27;;;;;;;3.38;2.40;;;;;;;2.43;69.55;96348.06;5086785;28;20051;-80
2023/12/16 10:15:53;;;;;;;4.10;2.10;;;;;;;2.45;69.73;96331.41;5089268;28;20024;-82
2023/12/16 10:18:18;;;;;;;4.10;2.05;;;;;;;2.54;68.33;96337.47;5088781;28;20035;-81
2023/12/16 10:20:44;;;;;;;3.63;1.50;;;;;;;2.47;68.09;96338.09;5088702;28;20039;-81
2023/12/16 10:23:11;;;;;;;3.58;2.03;;;;;;;2.37;68.29;96347.53;5088476;28;20403;-81
2023/12/16 10:25:36;;;;;;;2.70;1.90;;;;;;;2.36;68.44;96339.75;5088132;28;20414;-80
2023/12/16 10:28:02;;;;;;;3.60;2.45;;;;;;;2.40;68.48;96335.94;5088486;28;20036;-80
2023/12/16 10:30:28;;;;;;;3.88;2.53;;;;;;;2.45;69.01;96340.34;5087901;28;20077;-80
2023/12/16 10:32:56;;;;;;;4.25;2.53;;;;;;;2.56;68.39;96341.41;5085226;28;20426;-80
2023/12/16 10:35:23;;;;;;;3.38;1.98;;;;;;;2.58;67.92;96338.31;5086802;28;20107;-80
2023/12/16 10:37:49;;;;;;;3.47;1.90;;;;;;;2.60;67.72;96338.78;5088150;28;20032;-80
2023/12/16 10:40:15;;;;;;;2.50;1.80;;;;;;;2.64;68.12;96337.72;5086672;28;20028;-80
2023/12/16 10:42:41;;;;;;;4.00;2.15;;;;;;;2.57;68.09;96342.97;5086713;28;20024;-81
2023/12/16 10:45:09;;;;;;;3.30;2.15;;;;;;;2.64;67.11;96336.94;5087723;28;20035;-80
2023/12/16 10:47:37;;;;;;;2.88;1.90;;;;;;;2.74;67.53;96332.88;5087811;28;20462;-81
2023/12/16 10:50:03;;;;;;;2.55;1.67;;;;;;;2.88;66.02;96327.78;5088054;28;20032;-81
2023/12/16 10:52:53;;;;;;;2.42;1.75;;;;;;;3.10;66.34;96343.44;5087768;28;20031;-79
2023/12/16 10:55:23;;;;;;;3.97;1.58;;;;;;;3.28;64.43;96341.13;5087390;28;20126;-80
2023/12/16 10:57:54;;;;;;;5.90;2.50;;;;;;;3.63;65.06;96346.50;5069830;28;20096;-80
2023/12/16 11:00:23;;;;;;;4.80;2.00;;;;;;;3.77;63.72;96343.28;5087256;28;20016;-81
2023/12/16 11:03:03;;;;;;;3.40;2.30;;;;;;;3.90;64.16;96352.88;5088186;28;20036;-80
2023/12/16 11:05:32;;;;;;;2.78;1.98;;;;;;;3.98;63.64;96354.59;5087466;28;20111;-80
2023/12/16 11:08:01;;;;;;;3.10;2.17;;;;;;;4.00;63.06;96352.28;5087958;28;20043;-79
2023/12/16 11:10:28;;;;;;;4.47;2.55;;;;;;;4.12;63.20;96353.28;5086037;28;20567;-79
2023/12/16 11:12:53;;;;;;;3.53;2.38;;;;;;;4.11;62.83;96363.38;5087291;28;20040;-81
2023/12/16 11:15:19;;;;;;;4.50;2.58;;;;;;;4.19;62.66;96364.31;5085953;28;20058;-80
2023/12/16 11:17:57;;;;;;;5.68;3.35;;;;;;;4.20;63.41;96342.16;5083860;28;20032;-80
2023/12/16 11:20:29;;;;;;;7.40;4.07;;;;;;;4.40;64.05;96351.06;5086027;28;20032;-79
2023/12/16 11:22:56;;;;;;;7.97;4.57;;;;;;;4.59;66.21;96342.06;5087295;28;20031;-82
2023/12/16 11:25:22;;;;;;;5.38;3.75;;;;;;;4.78;63.82;96347.44;5088293;28;20442;-79
2023/12/16 11:27:48;;;;;;;6.75;3.58;;;;;;;4.99;64.17;96349.72;5088254;28;20031;-80
2023/12/16 11:30:14;;;;;;;6.13;4.03;;;;;;;5.18;64.08;96337.13;5086507;28;20032;-78
2023/12/16 11:32:42;;;;;;;7.05;4.70;;;;;;;5.37;63.64;96339.72;5087839;28;20035;-78
2023/12/16 11:35:08;;;;;;;11.88;8.25;;;;;;;5.48;61.13;96340.66;5087303;28;20059;-80
2023/12/16 11:37:36;;;;;;;44.55;26.27;;;;;;;5.65;61.51;96333.06;5087336;28;20128;-78